logo
Search for airport 
image banner adimage banner adimage banner ad
image banner ad

VT8 - Shelburne

Located in Shelburne, United States

ICAO - VT8, IATA -

Data provided by Airmate  

General information

Coordinates: N44°21'37" W73°13'35"
Elevation is 325 feet MSL.
Magnetic variation is -15° East
View others Airports in Vermont

Operational data

Special qualification required
Current time UTC:
Current local time:
METAR: KBTV 281954Z 30005KT 10SM FEW041 BKN050 BKN060 20/14 A2962 RMK AO2 RAB35E54 SLP030 P0003 T02000144
TAF: KBTV 281732Z 2818/2918 23009G16KT P6SM VCSH BKN070 FM282000 28009G15KT P6SM VCSH BKN050 TEMPO 2820/2824 5SM -SHRA FM290300 32006KT P6SM VCSH BKN027 FM291000 35006KT P6SM BKN030
View NOTAMs / SUP AIP / TFR affecting this airport [VIEW]
Communications frequencies: [VIEW]

Runways:

RWY identifierQFULength (ft)Width (ft)SurfaceLDA (ft)
01351°307760GRASS
19171°307760GRASS

Airport contact information

Address: Shelburne United States

Other aviation service providers

Flight schools

Shelburne Flight School, Llc

Shelburne Flight School, Llc
shelburnefs@gmail.com+1(802)233-0374

Satellite view of VT8